Time;durP1;ratioP1;P1;durP2;ratioP2;P2;SDS_P1;SDS_P2;PMS_P1;PMS_P2;Temp;Humidity;BMP_temperature;BMP_pressure;BME280_temperature;BME280_humidity;BME280_pressure;Samples;Min_cycle;Max_cycle;Signal;HPM_P1;HPM_P2
2021/08/22 00:00:07;;;;;;;0.10;0.10;;;18.80;76.40;;;;;;4918682;29;20031;-88
2021/08/22 00:02:33;;;;;;;0.00;0.00;;;18.80;76.50;;;;;;4917506;29;20367;-88
2021/08/22 00:04:59;;;;;;;0.00;0.00;;;18.80;76.70;;;;;;4918779;29;20031;-88
2021/08/22 00:07:25;;;;;;;0.00;0.00;;;18.80;76.70;;;;;;4917620;29;20115;-88
2021/08/22 00:09:51;;;;;;;0.00;0.00;;;18.80;76.80;;;;;;4917569;29;20031;-88
2021/08/22 00:12:17;;;;;;;0.00;0.00;;;18.80;77.00;;;;;;4917556;29;20378;-89
2021/08/22 00:14:42;;;;;;;0.00;0.00;;;18.80;77.10;;;;;;4917462;29;20032;-88
2021/08/22 00:17:08;;;;;;;0.10;0.10;;;18.80;77.20;;;;;;4917447;29;20036;-89
2021/08/22 00:19:34;;;;;;;0.10;0.10;;;18.80;77.40;;;;;;4917336;29;20036;-88
2021/08/22 00:22:00;;;;;;;0.00;0.00;;;18.80;77.70;;;;;;4917340;29;20028;-88
2021/08/22 00:24:25;;;;;;;0.00;0.00;;;18.80;78.00;;;;;;4917228;29;20495;-88
2021/08/22 00:26:51;;;;;;;0.10;0.10;;;18.80;78.10;;;;;;4917420;29;20091;-88
2021/08/22 00:29:17;;;;;;;0.00;0.00;;;18.80;78.20;;;;;;4917172;29;20375;-88
2021/08/22 00:31:44;;;;;;;0.00;0.00;;;18.80;78.20;;;;;;4917631;29;20039;-88
2021/08/22 00:34:10;;;;;;;0.00;0.00;;;18.80;78.40;;;;;;4918266;29;20028;-88
2021/08/22 00:36:35;;;;;;;0.00;0.00;;;18.70;78.70;;;;;;4923686;29;20036;-88
2021/08/22 00:39:01;;;;;;;0.10;0.10;;;18.80;78.90;;;;;;4921118;29;20032;-88
2021/08/22 00:41:28;;;;;;;0.00;0.00;;;18.80;79.20;;;;;;4918348;29;20036;-88
2021/08/22 00:43:54;;;;;;;0.00;0.00;;;18.80;79.30;;;;;;4918127;29;20032;-88
2021/08/22 00:46:20;;;;;;;0.00;0.00;;;18.70;79.30;;;;;;4917253;29;20040;-90
2021/08/22 00:48:46;;;;;;;0.10;0.10;;;18.70;79.60;;;;;;4918232;29;20021;-88
2021/08/22 00:51:19;;;;;;;0.00;0.00;;;18.70;79.80;;;;;;4916736;29;20032;-89
2021/08/22 00:53:46;;;;;;;0.00;0.00;;;18.70;80.20;;;;;;4916816;29;20024;-89
2021/08/22 00:56:13;;;;;;;0.00;0.00;;;18.70;80.20;;;;;;4916911;29;20060;-89
2021/08/22 00:58:39;;;;;;;0.10;0.10;;;18.70;80.40;;;;;;4916682;29;20063;-90
2021/08/22 01:01:12;;;;;;;0.00;0.00;;;18.70;80.60;;;;;;4917203;29;20067;-89
2021/08/22 01:03:52;;;;;;;0.10;0.10;;;18.70;80.90;;;;;;4916933;29;20052;-90
2021/08/22 01:06:45;;;;;;;0.00;0.00;;;18.70;81.10;;;;;;4916890;29;20034;-89
2021/08/22 01:09:17;;;;;;;0.10;0.10;;;18.80;81.40;;;;;;4917013;29;20509;-90
2021/08/22 01:11:45;;;;;;;0.00;0.00;;;18.80;81.40;;;;;;4917353;29;20517;-88
2021/08/22 01:14:14;;;;;;;0.08;0.08;;;18.80;81.40;;;;;;4916399;29;20035;-89
2021/08/22 01:16:53;;;;;;;0.10;0.10;;;18.90;81.50;;;;;;4916704;29;20092;-89
2021/08/22 01:19:59;;;;;;;0.00;0.00;;;18.90;81.60;;;;;;4916889;29;20028;-88
2021/08/22 01:22:26;;;;;;;0.10;0.10;;;19.00;81.80;;;;;;4910205;29;20191;-89
2021/08/22 01:24:55;;;;;;;0.00;0.00;;;19.00;81.40;;;;;;4916366;29;20115;-88
2021/08/22 01:27:22;;;;;;;0.00;0.00;;;19.10;81.20;;;;;;4916402;29;20036;-88
2021/08/22 01:30:12;;;;;;;0.00;0.00;;;19.10;81.20;;;;;;4916488;29;20028;-90
2021/08/22 01:32:45;;;;;;;0.00;0.00;;;19.20;81.50;;;;;;4913450;29;20113;-87
2021/08/22 01:35:13;;;;;;;0.00;0.00;;;19.20;81.20;;;;;;4916655;29;20032;-87
2021/08/22 01:37:42;;;;;;;0.00;0.00;;;19.20;81.30;;;;;;4916228;29;20035;-87
2021/08/22 01:40:10;;;;;;;0.00;0.00;;;19.20;81.30;;;;;;4916112;29;20035;-87
2021/08/22 01:42:38;;;;;;;0.05;0.05;;;19.10;81.30;;;;;;4924283;23;20135;-88
2021/08/22 01:45:07;;;;;;;0.00;0.00;;;19.10;81.40;;;;;;4916071;29;20032;-88
2021/08/22 01:47:39;;;;;;;0.00;0.00;;;19.10;81.50;;;;;;4916094;29;20131;-87
2021/08/22 01:50:06;;;;;;;0.00;0.00;;;19.00;81.70;;;;;;4916222;29;20031;-88
2021/08/22 01:52:33;;;;;;;0.00;0.00;;;19.00;82.00;;;;;;4916144;29;20028;-87
2021/08/22 01:55:01;;;;;;;0.00;0.00;;;18.90;82.20;;;;;;4916605;29;20496;-88
2021/08/22 01:57:27;;;;;;;0.00;0.00;;;18.90;82.30;;;;;;4916178;29;20041;-88
2021/08/22 01:59:52;;;;;;;0.00;0.00;;;18.90;82.50;;;;;;4916236;29;20072;-88
2021/08/22 02:02:18;;;;;;;0.00;0.00;;;18.80;82.70;;;;;;4916007;29;20099;-87
2021/08/22 02:04:46;;;;;;;0.00;0.00;;;18.80;83.00;;;;;;4915987;29;20032;-88
2021/08/22 02:07:20;;;;;;;0.08;0.08;;;18.80;83.40;;;;;;4916100;29;20092;-87
2021/08/22 02:09:49;;;;;;;0.00;0.00;;;18.70;83.80;;;;;;4916058;29;20119;-89
2021/08/22 02:12:17;;;;;;;0.00;0.00;;;18.70;84.10;;;;;;4916177;29;20028;-88
2021/08/22 02:14:51;;;;;;;0.00;0.00;;;18.70;84.30;;;;;;4916819;29;20032;-88
2021/08/22 02:17:19;;;;;;;0.00;0.00;;;18.70;84.50;;;;;;4916111;29;20533;-88
2021/08/22 02:19:45;;;;;;;0.00;0.00;;;18.70;84.80;;;;;;4915793;29;20028;-88
2021/08/22 02:22:11;;;;;;;0.00;0.00;;;18.70;85.00;;;;;;4915962;29;20042;-88
2021/08/22 02:24:37;;;;;;;0.00;0.00;;;18.70;85.40;;;;;;4916868;29;20394;-88
2021/08/22 02:27:03;;;;;;;0.03;0.03;;;18.70;85.60;;;;;;4915710;29;20064;-88
2021/08/22 02:29:29;;;;;;;0.00;0.00;;;18.70;85.60;;;;;;4915694;29;20025;-88
2021/08/22 02:31:55;;;;;;;0.10;0.10;;;18.70;85.60;;;;;;4915681;29;20047;-88
2021/08/22 02:34:20;;;;;;;0.10;0.10;;;18.70;85.50;;;;;;4916192;29;20051;-87
2021/08/22 02:36:46;;;;;;;0.10;0.10;;;18.70;85.60;;;;;;4919329;29;20032;-88
2021/08/22 02:39:12;;;;;;;0.00;0.00;;;18.70;85.70;;;;;;4919747;29;20024;-88
2021/08/22 02:41:37;;;;;;;0.00;0.00;;;18.70;85.80;;;;;;4920508;29;20074;-88
2021/08/22 02:44:03;;;;;;;0.00;0.00;;;18.70;86.00;;;;;;4919437;29;20040;-88
2021/08/22 02:46:29;;;;;;;0.00;0.00;;;18.70;86.10;;;;;;4919674;29;20036;-88
2021/08/22 02:48:55;;;;;;;0.00;0.00;;;18.80;86.30;;;;;;4921318;29;20028;-87
2021/08/22 02:51:21;;;;;;;0.00;0.00;;;18.80;86.20;;;;;;4918994;29;20120;-89
2021/08/22 02:53:46;;;;;;;0.03;0.03;;;18.80;86.20;;;;;;4920143;29;20511;-88
2021/08/22 02:56:12;;;;;;;0.00;0.00;;;18.90;86.30;;;;;;4918893;29;20492;-88
2021/08/22 02:58:37;;;;;;;0.00;0.00;;;18.90;86.20;;;;;;4920323;29;20038;-88
2021/08/22 03:01:03;;;;;;;0.00;0.00;;;18.90;86.20;;;;;;4920021;29;20067;-88
2021/08/22 03:03:29;;;;;;;0.00;0.00;;;19.00;86.30;;;;;;4920418;29;20497;-88
2021/08/22 03:05:55;;;;;;;0.10;0.10;;;19.00;86.10;;;;;;4918745;29;20401;-88
2021/08/22 03:08:21;;;;;;;0.00;0.00;;;19.10;86.00;;;;;;4918961;29;20036;-88
2021/08/22 03:10:46;;;;;;;0.00;0.00;;;19.10;85.70;;;;;;4919008;29;20028;-87
2021/08/22 03:13:13;;;;;;;0.00;0.00;;;19.20;85.60;;;;;;4918992;29;20123;-88
2021/08/22 03:15:39;;;;;;;0.00;0.00;;;19.10;85.40;;;;;;4918568;29;20123;-88
2021/08/22 03:18:05;;;;;;;0.00;0.00;;;19.20;85.50;;;;;;4918911;29;20530;-88
2021/08/22 03:20:31;;;;;;;0.00;0.00;;;19.20;85.50;;;;;;4919210;29;20035;-88
2021/08/22 03:22:56;;;;;;;0.00;0.00;;;19.10;85.50;;;;;;4918479;29;20068;-89
2021/08/22 03:25:22;;;;;;;0.00;0.00;;;19.20;85.50;;;;;;4918389;29;20076;-89
2021/08/22 03:27:48;;;;;;;0.10;0.10;;;19.20;85.50;;;;;;4918644;29;20067;-88
2021/08/22 03:30:14;;;;;;;0.00;0.00;;;19.30;85.50;;;;;;4918935;29;20525;-89
2021/08/22 03:32:40;;;;;;;0.00;0.00;;;19.30;85.30;;;;;;4919030;29;20032;-88
2021/08/22 03:35:06;;;;;;;0.00;0.00;;;19.30;85.40;;;;;;4918371;29;20036;-88
2021/08/22 03:37:32;;;;;;;0.00;0.00;;;19.30;85.40;;;;;;4918094;29;20032;-89
2021/08/22 03:39:57;;;;;;;0.00;0.00;;;19.30;85.50;;;;;;4917776;29;20494;-89
2021/08/22 03:42:23;;;;;;;0.00;0.00;;;19.30;85.30;;;;;;4919427;29;20056;-89
2021/08/22 03:44:49;;;;;;;0.00;0.00;;;19.30;85.20;;;;;;4918120;29;20040;-89
2021/08/22 03:47:14;;;;;;;0.00;0.00;;;19.30;85.10;;;;;;4918103;29;20035;-88
2021/08/22 03:49:40;;;;;;;0.00;0.00;;;19.30;85.10;;;;;;4918221;29;20020;-88
2021/08/22 03:52:06;;;;;;;0.03;0.03;;;19.30;85.30;;;;;;4918016;29;20040;-89
2021/08/22 03:54:32;;;;;;;0.10;0.10;;;19.20;85.50;;;;;;4917669;29;20059;-89
2021/08/22 03:56:57;;;;;;;0.05;0.05;;;19.20;85.80;;;;;;4917692;29;20083;-89
2021/08/22 03:59:23;;;;;;;0.00;0.00;;;19.20;85.90;;;;;;4919340;29;20389;-90
2021/08/22 04:01:49;;;;;;;0.00;0.00;;;19.20;86.00;;;;;;4919025;29;20033;-89
2021/08/22 04:04:14;;;;;;;0.00;0.00;;;19.20;86.20;;;;;;4918572;29;20047;-88
2021/08/22 04:06:47;;;;;;;0.00;0.00;;;19.10;86.30;;;;;;4918830;29;20035;-89
2021/08/22 04:09:13;;;;;;;0.05;0.05;;;19.20;86.50;;;;;;4920096;29;20039;-88
2021/08/22 04:11:39;;;;;;;0.00;0.00;;;19.20;86.70;;;;;;4917877;29;20032;-89
2021/08/22 04:14:08;;;;;;;0.00;0.00;;;19.30;86.80;;;;;;4917761;29;20376;-89
2021/08/22 04:16:34;;;;;;;0.00;0.00;;;19.40;86.70;;;;;;4920037;29;20028;-90
2021/08/22 04:19:04;;;;;;;0.00;0.00;;;19.50;86.30;;;;;;4919582;29;20028;-89
2021/08/22 04:21:30;;;;;;;0.00;0.00;;;19.70;86.10;;;;;;4920073;29;20028;-90
2021/08/22 04:23:57;;;;;;;0.00;0.00;;;19.80;85.70;;;;;;4919965;29;20099;-90
2021/08/22 04:26:23;;;;;;;0.10;0.10;;;19.90;85.30;;;;;;4920622;29;20083;-90
2021/08/22 04:28:48;;;;;;;0.10;0.10;;;20.00;84.70;;;;;;4919110;29;20441;-90
2021/08/22 04:31:14;;;;;;;0.00;0.00;;;20.00;84.40;;;;;;4919688;29;20092;-90
2021/08/22 04:33:58;;;;;;;0.00;0.00;;;20.00;84.00;;;;;;4919258;29;20032;-90
2021/08/22 04:36:29;;;;;;;0.00;0.00;;;20.10;84.20;;;;;;4917756;29;20088;-90
2021/08/22 04:38:55;;;;;;;0.00;0.00;;;20.20;84.00;;;;;;4919238;29;20028;-90
2021/08/22 04:41:36;;;;;;;0.00;0.00;;;20.30;83.60;;;;;;4920020;29;20371;-90
2021/08/22 04:44:05;;;;;;;0.00;0.00;;;20.40;83.10;;;;;;4920584;29;20040;-91
2021/08/22 04:46:36;;;;;;;0.00;0.00;;;20.60;82.80;;;;;;4919371;29;20042;-90
2021/08/22 04:49:02;;;;;;;0.00;0.00;;;20.70;82.10;;;;;;4918084;29;20093;-90
2021/08/22 04:51:27;;;;;;;0.10;0.10;;;20.80;81.70;;;;;;4918080;29;20044;-88
2021/08/22 04:53:53;;;;;;;0.00;0.00;;;20.90;81.30;;;;;;4917802;29;20020;-89
2021/08/22 04:56:19;;;;;;;0.00;0.00;;;21.00;81.10;;;;;;4917542;29;20040;-90
2021/08/22 04:59:05;;;;;;;0.00;0.00;;;21.10;80.50;;;;;;4917248;29;20024;-91
2021/08/22 05:01:33;;;;;;;0.00;0.00;;;21.30;79.90;;;;;;4918068;29;20047;-89
2021/08/22 05:04:02;;;;;;;0.00;0.00;;;21.50;79.70;;;;;;4917275;29;20086;-91
2021/08/22 05:06:27;;;;;;;0.10;0.10;;;21.70;79.90;;;;;;4918188;29;20032;-90
2021/08/22 05:08:53;;;;;;;0.00;0.00;;;22.10;79.90;;;;;;4918388;29;20027;-89
2021/08/22 05:11:24;;;;;;;0.00;0.00;;;22.60;79.10;;;;;;4917620;29;20043;-91
2021/08/22 05:13:55;;;;;;;0.00;0.00;;;23.10;77.90;;;;;;4917586;29;20044;-90
2021/08/22 05:16:30;;;;;;;0.00;0.00;;;23.60;76.50;;;;;;4918600;29;20032;-91
2021/08/22 05:18:56;;;;;;;0.00;0.00;;;23.90;72.90;;;;;;4917373;29;20032;-91
2021/08/22 05:21:32;;;;;;;0.00;0.00;;;24.00;73.90;;;;;;4917838;29;20520;-90
2021/08/22 05:23:57;;;;;;;0.00;0.00;;;24.40;73.40;;;;;;4918694;29;20051;-90
2021/08/22 05:26:23;;;;;;;0.00;0.00;;;24.90;72.50;;;;;;4917009;29;20028;-89
2021/08/22 05:29:02;;;;;;;0.00;0.00;;;25.30;71.20;;;;;;4918206;29;20123;-92
2021/08/22 05:31:28;;;;;;;0.00;0.00;;;25.80;70.10;;;;;;4917532;29;20398;-91
2021/08/22 05:34:07;;;;;;;;;;;;;;;;;;;;;
2021/08/22 05:36:37;;;;;;;0.00;0.00;;;26.60;67.70;;;;;;4918833;29;20039;-90
2021/08/22 05:39:04;;;;;;;0.00;0.00;;;27.10;67.10;;;;;;4917408;29;20051;-89
2021/08/22 05:41:30;;;;;;;0.00;0.00;;;27.50;66.00;;;;;;4920614;29;20039;-90
2021/08/22 05:43:56;;;;;;;0.00;0.00;;;27.80;65.20;;;;;;4918665;29;20044;-92
2021/08/22 05:46:22;;;;;;;0.00;0.00;;;28.10;64.10;;;;;;4917074;29;20034;-91
2021/08/22 05:48:48;;;;;;;0.00;0.00;;;28.40;63.50;;;;;;4917464;29;20122;-90
2021/08/22 05:51:19;;;;;;;0.00;0.00;;;28.60;62.60;;;;;;4917356;29;20028;-89
2021/08/22 05:53:51;;;;;;;0.00;0.00;;;28.70;61.40;;;;;;4917926;29;20394;-93
2021/08/22 05:56:18;;;;;;;0.00;0.00;;;28.60;60.90;;;;;;4916719;29;20099;-91
2021/08/22 05:58:45;;;;;;;0.00;0.00;;;28.30;60.70;;;;;;4917509;29;20055;-91
2021/08/22 06:01:11;;;;;;;0.00;0.00;;;28.00;60.80;;;;;;4917949;29;20025;-89
2021/08/22 06:03:36;;;;;;;0.00;0.00;;;27.80;60.80;;;;;;4916711;29;20051;-90
2021/08/22 06:06:08;;;;;;;0.00;0.00;;;27.90;61.30;;;;;;4918289;29;20497;-91
2021/08/22 06:08:36;;;;;;;0.00;0.00;;;28.50;60.70;;;;;;4918299;29;20040;-90
2021/08/22 06:11:02;;;;;;;0.00;0.00;;;28.90;59.90;;;;;;4921765;29;20497;-90
2021/08/22 06:13:28;;;;;;;0.00;0.00;;;29.40;59.20;;;;;;4920576;29;20044;-90
2021/08/22 06:15:54;;;;;;;0.00;0.00;;;29.70;58.10;;;;;;4921874;29;20020;-89
2021/08/22 06:18:19;;;;;;;0.00;0.00;;;29.70;57.70;;;;;;4921023;29;20047;-88
2021/08/22 06:20:45;;;;;;;0.00;0.00;;;29.80;57.20;;;;;;4921540;29;20027;-89
2021/08/22 06:23:14;;;;;;;0.00;0.00;;;30.30;57.10;;;;;;4920119;29;20095;-90
2021/08/22 06:25:40;;;;;;;0.00;0.00;;;30.70;56.80;;;;;;4920588;29;20087;-89
2021/08/22 06:28:08;;;;;;;0.00;0.00;;;31.10;56.20;;;;;;4920427;29;20036;-92
2021/08/22 06:30:34;;;;;;;0.00;0.00;;;31.20;55.30;;;;;;4922549;29;20482;-91
2021/08/22 06:33:00;;;;;;;0.00;0.00;;;30.80;54.30;;;;;;4920336;29;20088;-90
2021/08/22 06:35:28;;;;;;;0.00;0.00;;;30.50;54.70;;;;;;4922483;29;20489;-90
2021/08/22 06:37:53;;;;;;;0.00;0.00;;;30.70;55.20;;;;;;4920179;29;20497;-90
2021/08/22 06:40:19;;;;;;;0.00;0.00;;;31.20;54.90;;;;;;4920784;29;20064;-90
2021/08/22 06:42:45;;;;;;;0.00;0.00;;;31.80;54.40;;;;;;4922602;29;20040;-87
2021/08/22 06:45:11;;;;;;;0.00;0.00;;;32.20;53.10;;;;;;4921831;29;20046;-92
2021/08/22 06:47:37;;;;;;;0.00;0.00;;;32.00;52.20;;;;;;4921845;29;20397;-91
2021/08/22 06:50:04;;;;;;;0.00;0.00;;;31.90;53.10;;;;;;4920624;29;20028;-87
2021/08/22 06:52:33;;;;;;;0.00;0.00;;;32.00;52.70;;;;;;4921288;29;20482;-91
2021/08/22 06:54:59;;;;;;;0.00;0.00;;;32.60;52.30;;;;;;4922215;29;20036;-90
2021/08/22 06:57:25;;;;;;;0.00;0.00;;;33.20;51.50;;;;;;4929836;23;20058;-91
2021/08/22 06:59:51;;;;;;;0.00;0.00;;;33.70;50.90;;;;;;4922480;29;20052;-90
2021/08/22 07:02:17;;;;;;;0.00;0.00;;;34.00;50.30;;;;;;4923279;29;20197;-90
2021/08/22 07:04:43;;;;;;;0.00;0.00;;;34.00;49.80;;;;;;4921480;29;20505;-92
2021/08/22 07:07:09;;;;;;;0.00;0.00;;;34.10;49.70;;;;;;4925859;29;20043;-91
2021/08/22 07:09:38;;;;;;;0.00;0.00;;;34.40;49.60;;;;;;4921627;29;20036;-93
2021/08/22 07:12:05;;;;;;;0.00;0.00;;;34.40;48.20;;;;;;4923626;29;20032;-91
2021/08/22 07:14:31;;;;;;;0.00;0.00;;;33.80;48.50;;;;;;4924949;29;20513;-90
2021/08/22 07:16:59;;;;;;;0.00;0.00;;;33.30;49.10;;;;;;4927657;29;20036;-90
2021/08/22 07:19:28;;;;;;;0.00;0.00;;;33.40;49.60;;;;;;4925809;29;20027;-91
2021/08/22 07:21:53;;;;;;;0.00;0.00;;;33.80;49.40;;;;;;4924387;29;20051;-89
2021/08/22 07:24:19;;;;;;;0.10;0.10;;;33.80;48.90;;;;;;4922793;29;20036;-90
2021/08/22 07:26:45;;;;;;;0.00;0.00;;;34.10;48.80;;;;;;4929133;29;20036;-87
2021/08/22 07:29:10;;;;;;;0.00;0.00;;;34.60;48.50;;;;;;4938076;29;20036;-90
2021/08/22 07:31:44;;;;;;;0.00;0.00;;;34.90;48.10;;;;;;4933987;29;20028;-90
2021/08/22 07:34:09;;;;;;;0.10;0.10;;;35.30;47.60;;;;;;4927928;29;20132;-91
2021/08/22 07:36:35;;;;;;;0.00;0.00;;;35.50;46.70;;;;;;4922460;29;20059;-89
2021/08/22 07:39:01;;;;;;;0.00;0.00;;;35.80;46.40;;;;;;4921599;29;20043;-87
2021/08/22 07:41:27;;;;;;;0.00;0.00;;;35.80;45.80;;;;;;4920613;29;20533;-87
2021/08/22 07:44:03;;;;;;;0.10;0.10;;;35.90;45.70;;;;;;4921149;29;20502;-91
2021/08/22 07:46:30;;;;;;;0.00;0.00;;;36.20;45.70;;;;;;4919460;29;20083;-90
2021/08/22 07:48:56;;;;;;;0.00;0.00;;;36.30;45.10;;;;;;4920943;29;20032;-90
2021/08/22 07:51:22;;;;;;;0.00;0.00;;;36.50;45.00;;;;;;4920025;29;20031;-91
2021/08/22 07:53:48;;;;;;;0.00;0.00;;;36.90;44.80;;;;;;4920497;29;20386;-86
2021/08/22 07:56:14;;;;;;;0.10;0.10;;;37.40;44.20;;;;;;4919438;29;20028;-91
2021/08/22 07:58:39;;;;;;;0.00;0.00;;;37.50;43.90;;;;;;4918665;29;20127;-91
2021/08/22 08:01:11;;;;;;;0.10;0.10;;;37.60;43.40;;;;;;4920078;29;20020;-91
2021/08/22 08:03:40;;;;;;;0.05;0.05;;;37.50;43.30;;;;;;4920363;29;20468;-92
2021/08/22 08:06:06;;;;;;;0.10;0.10;;;37.70;43.40;;;;;;4919051;29;20082;-91
2021/08/22 08:08:31;;;;;;;0.05;0.05;;;37.90;43.30;;;;;;4919197;29;20494;-89
2021/08/22 08:10:57;;;;;;;0.00;0.00;;;38.20;43.10;;;;;;4920175;29;20130;-88
2021/08/22 08:13:26;;;;;;;0.03;0.03;;;38.60;42.60;;;;;;4920210;29;20041;-91
2021/08/22 08:15:51;;;;;;;0.10;0.10;;;39.00;41.90;;;;;;4920068;29;20063;-91
2021/08/22 08:18:17;;;;;;;0.10;0.10;;;39.30;41.60;;;;;;4918906;29;20058;-91
2021/08/22 08:20:43;;;;;;;0.10;0.10;;;39.50;41.20;;;;;;4918523;29;20504;-89
2021/08/22 08:23:09;;;;;;;0.10;0.10;;;39.60;40.40;;;;;;4918805;29;20042;-91
2021/08/22 08:25:34;;;;;;;0.10;0.10;;;39.70;39.80;;;;;;4918599;29;20035;-89
2021/08/22 08:28:00;;;;;;;0.03;0.03;;;39.80;39.90;;;;;;4917457;29;20032;-90
2021/08/22 08:30:26;;;;;;;0.10;0.10;;;40.00;39.60;;;;;;4918877;29;20052;-87
2021/08/22 08:32:51;;;;;;;0.10;0.10;;;39.90;39.30;;;;;;4918639;29;20028;-89
2021/08/22 08:35:17;;;;;;;0.10;0.10;;;39.70;38.90;;;;;;4925302;29;20390;-90
2021/08/22 08:37:43;;;;;;;0.10;0.10;;;39.50;38.70;;;;;;4924699;29;20067;-89
2021/08/22 08:40:17;;;;;;;0.10;0.10;;;39.60;38.90;;;;;;4918408;29;20036;-91
2021/08/22 08:42:53;;;;;;;0.10;0.10;;;39.80;38.20;;;;;;4919390;29;20059;-90
2021/08/22 08:45:42;;;;;;;0.00;0.00;;;39.80;37.50;;;;;;4917515;29;20047;-90
2021/08/22 08:48:08;;;;;;;0.10;0.10;;;39.90;36.60;;;;;;4907897;29;20028;-88
2021/08/22 08:50:39;;;;;;;0.10;0.10;;;40.00;37.80;;;;;;4917415;29;20450;-88
2021/08/22 08:53:12;;;;;;;0.10;0.10;;;40.10;37.30;;;;;;4917449;29;20130;-90
2021/08/22 08:55:55;;;;;;;0.00;0.00;;;40.10;37.10;;;;;;4917576;29;20474;-90
2021/08/22 08:58:22;;;;;;;0.10;0.10;;;40.30;35.40;;;;;;4917991;29;20062;-88
2021/08/22 09:00:48;;;;;;;0.10;0.10;;;40.60;36.80;;;;;;4917850;29;20028;-90
2021/08/22 09:03:19;;;;;;;0.10;0.10;;;40.90;36.40;;;;;;4917275;29;20079;-90
2021/08/22 09:06:03;;;;;;;0.10;0.10;;;40.90;35.90;;;;;;4917714;29;20231;-90
2021/08/22 09:08:54;;;;;;;0.10;0.10;;;40.90;35.60;;;;;;4917535;29;20036;-89
2021/08/22 09:11:47;;;;;;;0.10;0.10;;;40.80;35.90;;;;;;4917360;29;20028;-88
2021/08/22 09:14:50;;;;;;;0.10;0.10;;;40.80;35.80;;;;;;4918051;29;20078;-91
2021/08/22 09:17:53;;;;;;;0.10;0.10;;;40.50;35.40;;;;;;4916694;29;20032;-87
2021/08/22 09:20:31;;;;;;;0.10;0.10;;;40.30;35.60;;;;;;4917115;29;20078;-88
2021/08/22 09:23:27;;;;;;;0.10;0.10;;;40.40;36.10;;;;;;4916555;29;20054;-90
2021/08/22 09:26:20;;;;;;;0.10;0.10;;;40.60;35.10;;;;;;4917622;29;20047;-90
2021/08/22 09:29:26;;;;;;;0.10;0.10;;;40.70;35.30;;;;;;4917194;29;20044;-91
2021/08/22 09:32:13;;;;;;;0.10;0.10;;;41.10;34.20;;;;;;4916800;29;20383;-89
2021/08/22 09:35:24;;;;;;;0.10;0.10;;;41.40;35.00;;;;;;4916619;29;20406;-88
2021/08/22 09:38:28;;;;;;;0.05;0.05;;;41.80;34.00;;;;;;4881898;29;20041;-88
2021/08/22 09:41:18;;;;;;;0.10;0.10;;;41.60;34.40;;;;;;4936081;29;20171;-89
2021/08/22 09:44:20;;;;;;;0.10;0.10;;;41.70;35.10;;;;;;4919212;29;20055;-89
2021/08/22 09:47:05;;;;;;;0.10;0.10;;;41.60;34.00;;;;;;4916233;29;20042;-91
2021/08/22 09:50:23;;;;;;;0.10;0.10;;;41.60;34.20;;;;;;4916432;29;20028;-89
2021/08/22 09:53:26;;;;;;;0.10;0.10;;;41.60;34.00;;;;;;4905939;29;20111;-91
2021/08/22 09:56:10;;;;;;;0.10;0.10;;;41.60;33.60;;;;;;4916259;29;20046;-90
2021/08/22 09:58:56;;;;;;;0.17;0.17;;;42.00;33.90;;;;;;4916177;29;20036;-88
2021/08/22 10:01:34;;;;;;;0.10;0.10;;;42.60;33.20;;;;;;4916230;29;20032;-89
2021/08/22 10:04:21;;;;;;;0.10;0.10;;;42.60;33.40;;;;;;4918190;29;20068;-90
2021/08/22 10:06:50;;;;;;;0.10;0.10;;;42.70;33.10;;;;;;4919132;29;20028;-89
2021/08/22 10:09:25;;;;;;;0.10;0.10;;;42.90;32.90;;;;;;4932139;29;20077;-87
2021/08/22 10:11:56;;;;;;;0.10;0.10;;;43.00;32.70;;;;;;4938834;29;20035;-88
2021/08/22 10:14:26;;;;;;;0.20;0.20;;;43.00;32.50;;;;;;4922897;29;20044;-92
2021/08/22 10:16:53;;;;;;;0.10;0.10;;;43.10;32.40;;;;;;4915968;29;20442;-87
2021/08/22 10:19:29;;;;;;;0.10;0.10;;;43.20;32.40;;;;;;4918223;29;20458;-88
2021/08/22 10:22:18;;;;;;;0.10;0.10;;;43.10;32.00;;;;;;4916264;29;20108;-88
2021/08/22 10:24:46;;;;;;;0.10;0.10;;;43.10;32.20;;;;;;4915799;29;20529;-91
2021/08/22 10:27:32;;;;;;;0.20;0.20;;;43.20;32.40;;;;;;4916280;29;20052;-91
2021/08/22 10:30:04;;;;;;;0.20;0.20;;;43.20;31.50;;;;;;4916337;29;20036;-90
2021/08/22 10:32:36;;;;;;;0.10;0.10;;;43.10;32.10;;;;;;4916698;29;20051;-89
2021/08/22 10:35:10;;;;;;;0.17;0.17;;;43.20;32.20;;;;;;4916677;29;20457;-88
2021/08/22 10:37:37;;;;;;;0.20;0.20;;;43.50;32.10;;;;;;4917148;29;20035;-90
2021/08/22 10:40:24;;;;;;;0.10;0.10;;;43.60;32.10;;;;;;4918107;29;20202;-88
2021/08/22 10:42:53;;;;;;;0.20;0.20;;;43.60;31.90;;;;;;4917415;29;20397;-86
2021/08/22 10:45:43;;;;;;;0.20;0.20;;;43.90;32.20;;;;;;4915852;29;20031;-89
2021/08/22 10:48:10;;;;;;;0.10;0.10;;;44.30;31.40;;;;;;4916062;29;20470;-90
2021/08/22 10:51:02;;;;;;;0.20;0.20;;;44.60;31.60;;;;;;4915623;29;20078;-88
2021/08/22 10:53:33;;;;;;;0.17;0.17;;;44.90;31.10;;;;;;4915840;29;20036;-91
2021/08/22 10:56:22;;;;;;;0.20;0.20;;;45.10;31.20;;;;;;4917325;29;20032;-90
2021/08/22 10:59:15;;;;;;;0.10;0.10;;;45.30;31.20;;;;;;4918948;29;20498;-91
2021/08/22 11:01:42;;;;;;;0.20;0.20;;;45.40;30.40;;;;;;4920385;29;20025;-86
2021/08/22 11:04:13;;;;;;;0.10;0.10;;;45.30;31.70;;;;;;4919251;29;20402;-89
2021/08/22 11:07:09;;;;;;;0.10;0.10;;;45.00;30.90;;;;;;4919262;29;20043;-88
2021/08/22 11:09:44;;;;;;;0.20;0.20;;;44.70;30.90;;;;;;4918901;29;20086;-90
2021/08/22 11:12:32;;;;;;;0.13;0.13;;;44.70;31.10;;;;;;4918595;29;20034;-90
2021/08/22 11:15:00;;;;;;;0.20;0.20;;;45.10;31.10;;;;;;4919193;29;20036;-90
2021/08/22 11:17:26;;;;;;;0.20;0.20;;;45.30;31.10;;;;;;4918808;29;20389;-88
2021/08/22 11:19:53;;;;;;;0.20;0.20;;;45.40;30.70;;;;;;4918505;29;20092;-88
2021/08/22 11:22:26;;;;;;;0.20;0.20;;;45.30;30.60;;;;;;4919590;29;20040;-88
2021/08/22 11:24:53;;;;;;;0.20;0.20;;;44.80;30.40;;;;;;4918668;29;20036;-87
2021/08/22 11:27:26;;;;;;;0.15;0.15;;;44.20;30.50;;;;;;4920227;29;20042;-91
2021/08/22 11:30:04;;;;;;;0.10;0.10;;;43.70;30.40;;;;;;4920616;29;20072;-90
2021/08/22 11:32:30;;;;;;;0.10;0.10;;;43.40;30.70;;;;;;4919164;29;20072;-90
2021/08/22 11:35:16;;;;;;;0.10;0.10;;;43.10;30.80;;;;;;4919380;29;20099;-90
2021/08/22 11:37:44;;;;;;;0.10;0.10;;;42.50;30.50;;;;;;4918645;29;20052;-87
2021/08/22 11:40:16;;;;;;;0.10;0.10;;;42.40;31.30;;;;;;4918335;29;20402;-87
2021/08/22 11:42:50;;;;;;;0.10;0.10;;;42.80;31.30;;;;;;4919974;29;20368;-88
2021/08/22 11:45:19;;;;;;;0.10;0.10;;;43.30;31.10;;;;;;4919099;29;20044;-89
2021/08/22 11:47:45;;;;;;;0.10;0.10;;;43.30;30.90;;;;;;4919732;29;20123;-91
2021/08/22 11:50:14;;;;;;;0.10;0.10;;;42.80;31.10;;;;;;4919863;29;20103;-89
2021/08/22 11:52:48;;;;;;;0.10;0.10;;;42.90;31.30;;;;;;4919049;29;20040;-90
2021/08/22 11:55:15;;;;;;;0.10;0.10;;;43.20;30.90;;;;;;4918675;29;20064;-91
2021/08/22 11:57:42;;;;;;;0.10;0.10;;;43.20;31.00;;;;;;4918043;29;20146;-90
2021/08/22 12:00:10;;;;;;;0.10;0.10;;;43.30;30.80;;;;;;4918179;29;20051;-86
2021/08/22 12:03:01;;;;;;;0.10;0.10;;;43.80;30.80;;;;;;4918829;29;20090;-91
2021/08/22 12:05:28;;;;;;;0.10;0.10;;;44.10;30.40;;;;;;4919820;29;20032;-90
2021/08/22 12:08:08;;;;;;;0.10;0.10;;;43.90;30.70;;;;;;4917945;29;20036;-88
2021/08/22 12:10:41;;;;;;;0.10;0.10;;;44.00;30.40;;;;;;4918066;29;20486;-90
2021/08/22 12:13:33;;;;;;;0.10;0.10;;;44.00;30.20;;;;;;4918295;29;20041;-91
2021/08/22 12:16:17;;;;;;;0.10;0.10;;;44.20;30.00;;;;;;4917824;29;20037;-90
2021/08/22 12:18:43;;;;;;;0.10;0.10;;;43.60;30.10;;;;;;4919418;29;20107;-89
2021/08/22 12:21:14;;;;;;;0.10;0.10;;;42.10;30.30;;;;;;4918866;29;20474;-88
2021/08/22 12:23:40;;;;;;;0.00;0.00;;;40.90;30.80;;;;;;4919154;29;20032;-89
2021/08/22 12:26:35;;;;;;;0.00;0.00;;;40.00;31.20;;;;;;4921127;29;20108;-89
2021/08/22 12:29:09;;;;;;;0.00;0.00;;;39.20;31.70;;;;;;4918539;29;20087;-89
2021/08/22 12:31:39;;;;;;;0.10;0.10;;;39.20;32.60;;;;;;4918141;29;20119;-89
2021/08/22 12:34:09;;;;;;;0.10;0.10;;;39.90;32.20;;;;;;4917878;29;20116;-89
2021/08/22 12:36:41;;;;;;;0.10;0.10;;;40.40;31.70;;;;;;4918954;29;20024;-91
2021/08/22 12:39:17;;;;;;;0.10;0.10;;;40.70;31.40;;;;;;4920711;29;20067;-89
2021/08/22 12:41:47;;;;;;;0.10;0.10;;;41.10;31.30;;;;;;4918415;29;20094;-89
2021/08/22 12:44:12;;;;;;;0.10;0.10;;;41.80;31.30;;;;;;4918718;29;20177;-89
2021/08/22 12:46:39;;;;;;;0.10;0.10;;;42.40;31.00;;;;;;4917691;29;20036;-89
2021/08/22 12:49:06;;;;;;;0.10;0.10;;;43.00;30.60;;;;;;4926241;29;20011;-88
2021/08/22 12:51:34;;;;;;;0.10;0.10;;;42.70;30.00;;;;;;4938732;29;20029;-90
2021/08/22 12:54:00;;;;;;;0.10;0.10;;;41.70;31.00;;;;;;4936433;29;20043;-88
2021/08/22 12:56:26;;;;;;;0.10;0.10;;;41.60;30.80;;;;;;4918458;29;20134;-91
2021/08/22 12:58:53;;;;;;;0.10;0.10;;;41.60;30.60;;;;;;4918364;29;20040;-91
2021/08/22 13:01:21;;;;;;;0.10;0.10;;;41.60;30.50;;;;;;4918369;29;20079;-91
2021/08/22 13:03:47;;;;;;;0.10;0.10;;;41.80;30.30;;;;;;4917594;29;20037;-90
2021/08/22 13:06:13;;;;;;;0.10;0.10;;;42.00;30.00;;;;;;4919170;29;20116;-89